sensor_id;sensor_type;location;lat;lon;timestamp;P1;durP1;ratioP1;P2;durP2;ratioP2
46222;SDS011;31943;51.410;7.564;2022-08-01T00:01:14;9.40;;;8.60;;
46222;SDS011;31943;51.410;7.564;2022-08-01T00:03:40;9.88;;;8.23;;
46222;SDS011;31943;51.410;7.564;2022-08-01T00:06:06;8.45;;;7.00;;
46222;SDS011;31943;51.410;7.564;2022-08-01T00:08:34;9.25;;;8.15;;
46222;SDS011;31943;51.410;7.564;2022-08-01T00:11:00;9.00;;;8.00;;
46222;SDS011;31943;51.410;7.564;2022-08-01T00:13:25;8.60;;;7.78;;
46222;SDS011;31943;51.410;7.564;2022-08-01T00:15:51;10.45;;;8.82;;
46222;SDS011;31943;51.410;7.564;2022-08-01T00:18:16;8.30;;;7.47;;
46222;SDS011;31943;51.410;7.564;2022-08-01T00:20:42;8.63;;;7.65;;
46222;SDS011;31943;51.410;7.564;2022-08-01T00:23:08;10.27;;;9.40;;
46222;SDS011;31943;51.410;7.564;2022-08-01T00:25:35;10.07;;;9.07;;
46222;SDS011;31943;51.410;7.564;2022-08-01T00:28:00;10.23;;;9.23;;
46222;SDS011;31943;51.410;7.564;2022-08-01T00:30:26;8.70;;;7.90;;
46222;SDS011;31943;51.410;7.564;2022-08-01T00:32:52;9.55;;;8.57;;
46222;SDS011;31943;51.410;7.564;2022-08-01T00:35:17;8.15;;;7.40;;
46222;SDS011;31943;51.410;7.564;2022-08-01T00:37:43;10.02;;;9.05;;
46222;SDS011;31943;51.410;7.564;2022-08-01T00:40:09;9.98;;;9.07;;
46222;SDS011;31943;51.410;7.564;2022-08-01T00:42:36;10.75;;;9.75;;
46222;SDS011;31943;51.410;7.564;2022-08-01T00:45:02;11.63;;;10.60;;
46222;SDS011;31943;51.410;7.564;2022-08-01T00:47:28;12.07;;;10.68;;
46222;SDS011;31943;51.410;7.564;2022-08-01T00:49:53;10.25;;;9.32;;
46222;SDS011;31943;51.410;7.564;2022-08-01T00:52:19;10.65;;;9.57;;
46222;SDS011;31943;51.410;7.564;2022-08-01T00:54:45;12.68;;;11.57;;
46222;SDS011;31943;51.410;7.564;2022-08-01T00:57:10;10.32;;;9.43;;
46222;SDS011;31943;51.410;7.564;2022-08-01T00:59:38;12.15;;;11.07;;
46222;SDS011;31943;51.410;7.564;2022-08-01T01:02:05;13.60;;;12.45;;
46222;SDS011;31943;51.410;7.564;2022-08-01T01:04:31;11.45;;;10.50;;
46222;SDS011;31943;51.410;7.564;2022-08-01T01:06:57;12.40;;;11.18;;
46222;SDS011;31943;51.410;7.564;2022-08-01T01:09:33;11.50;;;10.45;;
46222;SDS011;31943;51.410;7.564;2022-08-01T01:12:08;13.05;;;12.05;;
46222;SDS011;31943;51.410;7.564;2022-08-01T01:14:44;12.45;;;11.35;;
46222;SDS011;31943;51.410;7.564;2022-08-01T01:17:16;11.45;;;10.45;;
46222;SDS011;31943;51.410;7.564;2022-08-01T01:19:47;13.45;;;12.35;;
46222;SDS011;31943;51.410;7.564;2022-08-01T01:22:22;15.88;;;14.57;;
46222;SDS011;31943;51.410;7.564;2022-08-01T01:24:58;15.63;;;14.18;;
46222;SDS011;31943;51.410;7.564;2022-08-01T01:27:36;17.48;;;15.73;;
46222;SDS011;31943;51.410;7.564;2022-08-01T01:30:12;17.67;;;16.08;;
46222;SDS011;31943;51.410;7.564;2022-08-01T01:32:39;22.02;;;19.88;;
46222;SDS011;31943;51.410;7.564;2022-08-01T01:35:09;22.38;;;20.38;;
46222;SDS011;31943;51.410;7.564;2022-08-01T01:37:41;23.70;;;21.50;;
46222;SDS011;31943;51.410;7.564;2022-08-01T01:40:11;21.25;;;19.25;;
46222;SDS011;31943;51.410;7.564;2022-08-01T01:42:38;25.25;;;22.65;;
46222;SDS011;31943;51.410;7.564;2022-08-01T01:45:06;25.50;;;23.20;;
46222;SDS011;31943;51.410;7.564;2022-08-01T01:47:35;26.05;;;23.30;;
46222;SDS011;31943;51.410;7.564;2022-08-01T01:50:03;27.95;;;25.25;;
46222;SDS011;31943;51.410;7.564;2022-08-01T01:52:30;26.35;;;23.77;;
46222;SDS011;31943;51.410;7.564;2022-08-01T01:54:57;29.75;;;26.77;;
46222;SDS011;31943;51.410;7.564;2022-08-01T01:57:24;30.10;;;27.15;;
46222;SDS011;31943;51.410;7.564;2022-08-01T01:59:51;25.38;;;22.98;;
46222;SDS011;31943;51.410;7.564;2022-08-01T02:02:19;26.52;;;23.88;;
46222;SDS011;31943;51.410;7.564;2022-08-01T02:04:49;24.02;;;21.92;;
46222;SDS011;31943;51.410;7.564;2022-08-01T02:07:17;23.70;;;21.52;;
46222;SDS011;31943;51.410;7.564;2022-08-01T02:09:45;22.63;;;20.45;;
46222;SDS011;31943;51.410;7.564;2022-08-01T02:12:12;25.70;;;23.25;;
46222;SDS011;31943;51.410;7.564;2022-08-01T02:14:40;24.55;;;22.25;;
46222;SDS011;31943;51.410;7.564;2022-08-01T02:17:07;26.77;;;24.20;;
46222;SDS011;31943;51.410;7.564;2022-08-01T02:19:36;26.63;;;24.10;;
46222;SDS011;31943;51.410;7.564;2022-08-01T02:22:04;31.55;;;26.58;;
46222;SDS011;31943;51.410;7.564;2022-08-01T02:24:35;28.95;;;26.08;;
46222;SDS011;31943;51.410;7.564;2022-08-01T02:27:04;26.75;;;24.20;;
46222;SDS011;31943;51.410;7.564;2022-08-01T02:29:41;27.63;;;24.80;;
46222;SDS011;31943;51.410;7.564;2022-08-01T02:32:10;21.80;;;19.77;;
46222;SDS011;31943;51.410;7.564;2022-08-01T02:34:39;21.98;;;19.92;;
46222;SDS011;31943;51.410;7.564;2022-08-01T02:37:08;22.27;;;20.15;;
46222;SDS011;31943;51.410;7.564;2022-08-01T02:39:34;24.15;;;21.75;;
46222;SDS011;31943;51.410;7.564;2022-08-01T02:42:02;23.65;;;21.35;;
46222;SDS011;31943;51.410;7.564;2022-08-01T02:44:32;26.15;;;23.17;;
46222;SDS011;31943;51.410;7.564;2022-08-01T02:47:03;23.80;;;21.40;;
46222;SDS011;31943;51.410;7.564;2022-08-01T02:49:29;21.02;;;18.95;;
46222;SDS011;31943;51.410;7.564;2022-08-01T02:51:56;22.23;;;20.13;;
46222;SDS011;31943;51.410;7.564;2022-08-01T02:54:27;24.02;;;21.63;;
46222;SDS011;31943;51.410;7.564;2022-08-01T02:56:56;25.23;;;22.55;;
46222;SDS011;31943;51.410;7.564;2022-08-01T02:59:23;25.30;;;22.65;;
46222;SDS011;31943;51.410;7.564;2022-08-01T03:01:51;23.23;;;21.00;;
46222;SDS011;31943;51.410;7.564;2022-08-01T03:04:18;23.00;;;20.42;;
46222;SDS011;31943;51.410;7.564;2022-08-01T03:06:46;25.45;;;22.83;;
46222;SDS011;31943;51.410;7.564;2022-08-01T03:09:13;25.95;;;23.30;;
46222;SDS011;31943;51.410;7.564;2022-08-01T03:11:41;24.10;;;21.63;;
46222;SDS011;31943;51.410;7.564;2022-08-01T03:14:09;23.10;;;20.70;;
46222;SDS011;31943;51.410;7.564;2022-08-01T03:16:36;25.95;;;23.35;;
46222;SDS011;31943;51.410;7.564;2022-08-01T03:19:04;26.77;;;24.10;;
46222;SDS011;31943;51.410;7.564;2022-08-01T03:21:33;27.60;;;22.83;;
46222;SDS011;31943;51.410;7.564;2022-08-01T03:23:59;24.65;;;22.13;;
46222;SDS011;31943;51.410;7.564;2022-08-01T03:26:27;23.42;;;21.02;;
46222;SDS011;31943;51.410;7.564;2022-08-01T03:28:56;22.55;;;20.20;;
46222;SDS011;31943;51.410;7.564;2022-08-01T03:31:24;22.80;;;20.63;;
46222;SDS011;31943;51.410;7.564;2022-08-01T03:33:51;24.55;;;20.85;;
46222;SDS011;31943;51.410;7.564;2022-08-01T03:36:17;23.88;;;21.67;;
46222;SDS011;31943;51.410;7.564;2022-08-01T03:38:48;21.80;;;19.52;;
46222;SDS011;31943;51.410;7.564;2022-08-01T03:41:17;22.08;;;19.98;;
46222;SDS011;31943;51.410;7.564;2022-08-01T03:43:46;21.63;;;19.48;;
46222;SDS011;31943;51.410;7.564;2022-08-01T03:46:19;21.23;;;18.95;;
46222;SDS011;31943;51.410;7.564;2022-08-01T03:48:51;22.48;;;20.25;;
46222;SDS011;31943;51.410;7.564;2022-08-01T03:51:20;24.17;;;21.85;;
46222;SDS011;31943;51.410;7.564;2022-08-01T03:53:47;24.42;;;21.67;;
46222;SDS011;31943;51.410;7.564;2022-08-01T03:56:16;23.70;;;21.15;;
46222;SDS011;31943;51.410;7.564;2022-08-01T03:58:43;25.23;;;22.90;;
46222;SDS011;31943;51.410;7.564;2022-08-01T04:01:09;26.80;;;24.02;;
46222;SDS011;31943;51.410;7.564;2022-08-01T04:03:38;28.65;;;25.90;;
46222;SDS011;31943;51.410;7.564;2022-08-01T04:06:04;28.38;;;25.52;;
46222;SDS011;31943;51.410;7.564;2022-08-01T04:08:34;26.98;;;24.00;;
46222;SDS011;31943;51.410;7.564;2022-08-01T04:11:00;28.23;;;25.33;;
46222;SDS011;31943;51.410;7.564;2022-08-01T04:13:26;28.67;;;25.83;;
46222;SDS011;31943;51.410;7.564;2022-08-01T04:15:51;27.60;;;24.90;;
46222;SDS011;31943;51.410;7.564;2022-08-01T04:18:17;29.92;;;26.70;;
46222;SDS011;31943;51.410;7.564;2022-08-01T04:20:45;31.13;;;26.92;;
46222;SDS011;31943;51.410;7.564;2022-08-01T04:23:11;27.27;;;24.77;;
46222;SDS011;31943;51.410;7.564;2022-08-01T04:25:40;26.40;;;23.80;;
46222;SDS011;31943;51.410;7.564;2022-08-01T04:28:08;25.60;;;22.92;;
46222;SDS011;31943;51.410;7.564;2022-08-01T04:30:37;26.77;;;24.20;;
46222;SDS011;31943;51.410;7.564;2022-08-01T04:33:04;25.95;;;23.38;;
46222;SDS011;31943;51.410;7.564;2022-08-01T04:35:33;26.08;;;23.50;;
46222;SDS011;31943;51.410;7.564;2022-08-01T04:38:03;24.92;;;22.50;;
46222;SDS011;31943;51.410;7.564;2022-08-01T04:40:29;24.67;;;22.27;;
46222;SDS011;31943;51.410;7.564;2022-08-01T04:42:56;24.35;;;21.90;;
46222;SDS011;31943;51.410;7.564;2022-08-01T04:45:22;25.65;;;23.08;;
46222;SDS011;31943;51.410;7.564;2022-08-01T04:47:48;26.63;;;24.10;;
46222;SDS011;31943;51.410;7.564;2022-08-01T04:50:15;27.33;;;24.63;;
46222;SDS011;31943;51.410;7.564;2022-08-01T04:52:41;24.23;;;21.90;;
46222;SDS011;31943;51.410;7.564;2022-08-01T04:55:08;24.13;;;21.73;;
46222;SDS011;31943;51.410;7.564;2022-08-01T04:57:34;25.27;;;22.80;;
46222;SDS011;31943;51.410;7.564;2022-08-01T05:00:02;28.52;;;25.77;;
46222;SDS011;31943;51.410;7.564;2022-08-01T05:02:29;29.23;;;25.88;;
46222;SDS011;31943;51.410;7.564;2022-08-01T05:04:55;25.00;;;22.45;;
46222;SDS011;31943;51.410;7.564;2022-08-01T05:07:21;25.42;;;23.02;;
46222;SDS011;31943;51.410;7.564;2022-08-01T05:09:46;25.02;;;22.63;;
46222;SDS011;31943;51.410;7.564;2022-08-01T05:12:13;28.02;;;25.20;;
46222;SDS011;31943;51.410;7.564;2022-08-01T05:14:39;28.17;;;24.42;;
46222;SDS011;31943;51.410;7.564;2022-08-01T05:17:05;26.08;;;23.63;;
46222;SDS011;31943;51.410;7.564;2022-08-01T05:19:32;25.15;;;22.55;;
46222;SDS011;31943;51.410;7.564;2022-08-01T05:21:58;23.33;;;21.02;;
46222;SDS011;31943;51.410;7.564;2022-08-01T05:24:24;24.77;;;22.10;;
46222;SDS011;31943;51.410;7.564;2022-08-01T05:26:50;22.33;;;20.27;;
46222;SDS011;31943;51.410;7.564;2022-08-01T05:29:17;22.30;;;20.00;;
46222;SDS011;31943;51.410;7.564;2022-08-01T05:31:43;22.70;;;20.20;;
46222;SDS011;31943;51.410;7.564;2022-08-01T05:34:08;23.50;;;21.30;;
46222;SDS011;31943;51.410;7.564;2022-08-01T05:36:34;20.38;;;18.48;;
46222;SDS011;31943;51.410;7.564;2022-08-01T05:39:00;21.52;;;19.58;;
46222;SDS011;31943;51.410;7.564;2022-08-01T05:41:25;21.83;;;19.70;;
46222;SDS011;31943;51.410;7.564;2022-08-01T05:43:51;22.48;;;20.45;;
46222;SDS011;31943;51.410;7.564;2022-08-01T05:46:18;21.30;;;19.20;;
46222;SDS011;31943;51.410;7.564;2022-08-01T05:48:44;22.77;;;20.33;;
46222;SDS011;31943;51.410;7.564;2022-08-01T05:51:10;23.30;;;20.88;;
46222;SDS011;31943;51.410;7.564;2022-08-01T05:53:35;19.33;;;17.63;;
46222;SDS011;31943;51.410;7.564;2022-08-01T05:56:01;23.25;;;20.85;;
46222;SDS011;31943;51.410;7.564;2022-08-01T05:58:27;22.13;;;20.02;;
46222;SDS011;31943;51.410;7.564;2022-08-01T06:00:53;22.88;;;20.50;;
46222;SDS011;31943;51.410;7.564;2022-08-01T06:03:20;21.65;;;19.63;;
46222;SDS011;31943;51.410;7.564;2022-08-01T06:05:46;21.52;;;19.33;;
46222;SDS011;31943;51.410;7.564;2022-08-01T06:08:12;22.35;;;20.10;;
46222;SDS011;31943;51.410;7.564;2022-08-01T06:10:37;22.45;;;20.15;;
46222;SDS011;31943;51.410;7.564;2022-08-01T06:13:03;22.52;;;20.30;;
46222;SDS011;31943;51.410;7.564;2022-08-01T06:15:29;23.02;;;20.63;;
46222;SDS011;31943;51.410;7.564;2022-08-01T06:17:55;23.10;;;20.98;;
46222;SDS011;31943;51.410;7.564;2022-08-01T06:20:22;24.90;;;21.42;;
46222;SDS011;31943;51.410;7.564;2022-08-01T06:22:48;22.02;;;19.70;;
46222;SDS011;31943;51.410;7.564;2022-08-01T06:25:14;19.55;;;17.67;;
46222;SDS011;31943;51.410;7.564;2022-08-01T06:27:40;17.02;;;15.38;;
46222;SDS011;31943;51.410;7.564;2022-08-01T06:30:06;18.98;;;17.17;;
46222;SDS011;31943;51.410;7.564;2022-08-01T06:32:32;17.58;;;15.77;;
46222;SDS011;31943;51.410;7.564;2022-08-01T06:34:58;16.00;;;14.38;;
46222;SDS011;31943;51.410;7.564;2022-08-01T06:37:29;13.73;;;12.40;;
46222;SDS011;31943;51.410;7.564;2022-08-01T06:42:21;10.77;;;9.77;;
46222;SDS011;31943;51.410;7.564;2022-08-01T06:44:46;10.60;;;9.60;;
46222;SDS011;31943;51.410;7.564;2022-08-01T06:47:12;8.68;;;7.88;;
46222;SDS011;31943;51.410;7.564;2022-08-01T06:49:38;7.63;;;6.90;;
46222;SDS011;31943;51.410;7.564;2022-08-01T06:52:03;9.02;;;7.97;;
46222;SDS011;31943;51.410;7.564;2022-08-01T06:54:31;11.98;;;8.77;;
46222;SDS011;31943;51.410;7.564;2022-08-01T06:56:57;9.05;;;7.75;;
46222;SDS011;31943;51.410;7.564;2022-08-01T06:59:22;8.85;;;7.97;;
46222;SDS011;31943;51.410;7.564;2022-08-01T07:01:48;9.68;;;8.65;;
46222;SDS011;31943;51.410;7.564;2022-08-01T07:04:14;9.20;;;8.27;;
46222;SDS011;31943;51.410;7.564;2022-08-01T07:06:39;10.40;;;9.50;;
46222;SDS011;31943;51.410;7.564;2022-08-01T07:09:05;10.48;;;9.40;;
46222;SDS011;31943;51.410;7.564;2022-08-01T07:11:32;10.18;;;9.15;;
46222;SDS011;31943;51.410;7.564;2022-08-01T07:13:58;10.60;;;9.40;;
46222;SDS011;31943;51.410;7.564;2022-08-01T07:16:24;9.95;;;9.07;;
46222;SDS011;31943;51.410;7.564;2022-08-01T07:18:49;10.77;;;9.77;;
46222;SDS011;31943;51.410;7.564;2022-08-01T07:21:16;10.48;;;9.43;;
46222;SDS011;31943;51.410;7.564;2022-08-01T07:23:42;8.95;;;8.07;;
46222;SDS011;31943;51.410;7.564;2022-08-01T07:26:07;10.05;;;9.02;;
46222;SDS011;31943;51.410;7.564;2022-08-01T07:28:34;11.10;;;10.13;;
46222;SDS011;31943;51.410;7.564;2022-08-01T07:31:00;12.23;;;11.23;;
46222;SDS011;31943;51.410;7.564;2022-08-01T07:33:26;11.00;;;9.98;;
46222;SDS011;31943;51.410;7.564;2022-08-01T07:35:51;11.57;;;10.57;;
46222;SDS011;31943;51.410;7.564;2022-08-01T07:38:21;11.57;;;10.48;;
46222;SDS011;31943;51.410;7.564;2022-08-01T07:40:46;11.50;;;10.40;;
46222;SDS011;31943;51.410;7.564;2022-08-01T07:43:12;9.27;;;8.48;;
46222;SDS011;31943;51.410;7.564;2022-08-01T07:45:39;10.55;;;9.48;;
46222;SDS011;31943;51.410;7.564;2022-08-01T07:48:05;8.43;;;7.63;;
46222;SDS011;31943;51.410;7.564;2022-08-01T07:50:32;9.65;;;8.80;;
46222;SDS011;31943;51.410;7.564;2022-08-01T07:52:58;9.23;;;8.43;;
46222;SDS011;31943;51.410;7.564;2022-08-01T07:55:24;8.38;;;7.57;;
46222;SDS011;31943;51.410;7.564;2022-08-01T07:57:50;8.18;;;7.47;;
46222;SDS011;31943;51.410;7.564;2022-08-01T08:00:16;8.18;;;7.38;;
46222;SDS011;31943;51.410;7.564;2022-08-01T08:02:44;7.00;;;6.40;;
46222;SDS011;31943;51.410;7.564;2022-08-01T08:05:09;8.35;;;7.65;;
46222;SDS011;31943;51.410;7.564;2022-08-01T08:07:35;9.55;;;8.75;;
46222;SDS011;31943;51.410;7.564;2022-08-01T08:10:01;9.98;;;8.98;;
46222;SDS011;31943;51.410;7.564;2022-08-01T08:12:28;9.90;;;8.95;;
46222;SDS011;31943;51.410;7.564;2022-08-01T08:14:53;11.40;;;10.20;;
46222;SDS011;31943;51.410;7.564;2022-08-01T08:17:19;10.90;;;9.90;;
46222;SDS011;31943;51.410;7.564;2022-08-01T08:19:47;9.63;;;8.68;;
46222;SDS011;31943;51.410;7.564;2022-08-01T08:22:12;10.02;;;9.02;;
46222;SDS011;31943;51.410;7.564;2022-08-01T08:24:38;10.68;;;9.70;;
46222;SDS011;31943;51.410;7.564;2022-08-01T08:27:03;10.75;;;9.73;;
46222;SDS011;31943;51.410;7.564;2022-08-01T08:29:30;9.77;;;8.98;;
46222;SDS011;31943;51.410;7.564;2022-08-01T08:31:56;10.65;;;9.38;;
46222;SDS011;31943;51.410;7.564;2022-08-01T08:34:23;10.35;;;9.50;;
46222;SDS011;31943;51.410;7.564;2022-08-01T08:36:50;9.15;;;8.35;;
46222;SDS011;31943;51.410;7.564;2022-08-01T08:39:16;9.95;;;9.05;;
46222;SDS011;31943;51.410;7.564;2022-08-01T08:41:42;10.65;;;8.93;;
46222;SDS011;31943;51.410;7.564;2022-08-01T08:44:09;8.75;;;7.95;;
46222;SDS011;31943;51.410;7.564;2022-08-01T08:46:37;8.23;;;7.43;;
46222;SDS011;31943;51.410;7.564;2022-08-01T08:49:06;7.95;;;7.00;;
46222;SDS011;31943;51.410;7.564;2022-08-01T08:51:33;7.47;;;6.78;;
46222;SDS011;31943;51.410;7.564;2022-08-01T08:54:01;7.93;;;7.22;;
46222;SDS011;31943;51.410;7.564;2022-08-01T08:56:29;7.35;;;6.70;;
46222;SDS011;31943;51.410;7.564;2022-08-01T08:58:56;5.95;;;5.45;;
46222;SDS011;31943;51.410;7.564;2022-08-01T09:01:22;4.82;;;4.15;;
46222;SDS011;31943;51.410;7.564;2022-08-01T09:03:47;3.92;;;3.53;;
46222;SDS011;31943;51.410;7.564;2022-08-01T09:06:13;5.15;;;4.43;;
46222;SDS011;31943;51.410;7.564;2022-08-01T09:08:40;4.60;;;4.20;;
46222;SDS011;31943;51.410;7.564;2022-08-01T09:11:07;5.45;;;4.18;;
46222;SDS011;31943;51.410;7.564;2022-08-01T09:13:33;4.88;;;3.78;;
46222;SDS011;31943;51.410;7.564;2022-08-01T09:15:58;4.97;;;4.47;;
46222;SDS011;31943;51.410;7.564;2022-08-01T09:18:32;5.18;;;4.75;;
46222;SDS011;31943;51.410;7.564;2022-08-01T09:21:09;5.50;;;4.95;;
46222;SDS011;31943;51.410;7.564;2022-08-01T09:23:36;4.82;;;4.43;;
46222;SDS011;31943;51.410;7.564;2022-08-01T09:26:03;4.57;;;3.47;;
46222;SDS011;31943;51.410;7.564;2022-08-01T09:28:30;3.75;;;3.33;;
46222;SDS011;31943;51.410;7.564;2022-08-01T09:30:56;4.03;;;3.50;;
46222;SDS011;31943;51.410;7.564;2022-08-01T09:33:22;3.45;;;3.17;;
46222;SDS011;31943;51.410;7.564;2022-08-01T09:35:53;3.80;;;3.38;;
46222;SDS011;31943;51.410;7.564;2022-08-01T09:38:20;4.50;;;4.05;;
46222;SDS011;31943;51.410;7.564;2022-08-01T09:40:49;4.00;;;3.53;;
46222;SDS011;31943;51.410;7.564;2022-08-01T09:43:16;4.45;;;3.80;;
46222;SDS011;31943;51.410;7.564;2022-08-01T09:45:44;7.03;;;4.35;;
46222;SDS011;31943;51.410;7.564;2022-08-01T09:48:10;4.10;;;3.58;;
46222;SDS011;31943;51.410;7.564;2022-08-01T09:50:39;3.45;;;3.15;;
46222;SDS011;31943;51.410;7.564;2022-08-01T09:53:05;2.72;;;2.47;;
46222;SDS011;31943;51.410;7.564;2022-08-01T09:55:31;3.22;;;2.75;;
46222;SDS011;31943;51.410;7.564;2022-08-01T09:57:57;3.95;;;3.15;;
46222;SDS011;31943;51.410;7.564;2022-08-01T10:00:22;4.38;;;2.88;;
46222;SDS011;31943;51.410;7.564;2022-08-01T10:02:50;3.40;;;3.00;;
46222;SDS011;31943;51.410;7.564;2022-08-01T10:05:16;4.30;;;3.20;;
46222;SDS011;31943;51.410;7.564;2022-08-01T10:07:54;3.15;;;2.85;;
46222;SDS011;31943;51.410;7.564;2022-08-01T10:10:21;3.60;;;2.53;;
46222;SDS011;31943;51.410;7.564;2022-08-01T10:12:47;2.58;;;2.28;;
46222;SDS011;31943;51.410;7.564;2022-08-01T10:15:15;6.35;;;2.13;;
46222;SDS011;31943;51.410;7.564;2022-08-01T10:17:41;4.55;;;2.10;;
46222;SDS011;31943;51.410;7.564;2022-08-01T10:20:17;2.67;;;2.30;;
46222;SDS011;31943;51.410;7.564;2022-08-01T10:22:45;3.08;;;2.40;;
46222;SDS011;31943;51.410;7.564;2022-08-01T10:25:11;4.05;;;2.50;;
46222;SDS011;31943;51.410;7.564;2022-08-01T10:27:38;2.85;;;2.45;;
46222;SDS011;31943;51.410;7.564;2022-08-01T10:30:08;4.22;;;3.30;;
46222;SDS011;31943;51.410;7.564;2022-08-01T10:32:34;6.65;;;3.42;;
46222;SDS011;31943;51.410;7.564;2022-08-01T10:35:01;4.07;;;3.78;;
46222;SDS011;31943;51.410;7.564;2022-08-01T10:37:30;3.78;;;3.47;;
46222;SDS011;31943;51.410;7.564;2022-08-01T10:39:55;3.05;;;2.85;;
46222;SDS011;31943;51.410;7.564;2022-08-01T10:42:21;3.83;;;3.25;;
46222;SDS011;31943;51.410;7.564;2022-08-01T10:44:47;3.35;;;3.05;;
46222;SDS011;31943;51.410;7.564;2022-08-01T10:47:14;3.05;;;2.83;;
46222;SDS011;31943;51.410;7.564;2022-08-01T10:49:43;3.13;;;2.25;;
46222;SDS011;31943;51.410;7.564;2022-08-01T10:52:14;3.08;;;1.98;;
46222;SDS011;31943;51.410;7.564;2022-08-01T10:54:43;2.72;;;1.50;;
46222;SDS011;31943;51.410;7.564;2022-08-01T10:57:08;1.98;;;1.77;;
46222;SDS011;31943;51.410;7.564;2022-08-01T10:59:34;3.13;;;1.98;;
46222;SDS011;31943;51.410;7.564;2022-08-01T11:02:00;2.47;;;2.10;;
46222;SDS011;31943;51.410;7.564;2022-08-01T11:04:40;2.50;;;2.30;;
46222;SDS011;31943;51.410;7.564;2022-08-01T11:07:16;3.15;;;2.33;;
46222;SDS011;31943;51.410;7.564;2022-08-01T11:09:45;2.47;;;2.28;;
46222;SDS011;31943;51.410;7.564;2022-08-01T11:12:12;2.22;;;2.03;;
46222;SDS011;31943;51.410;7.564;2022-08-01T11:17:43;1.98;;;1.88;;
46222;SDS011;31943;51.410;7.564;2022-08-01T11:20:11;2.45;;;1.30;;
46222;SDS011;31943;51.410;7.564;2022-08-01T11:26:09;1.38;;;1.27;;
46222;SDS011;31943;51.410;7.564;2022-08-01T11:28:39;1.50;;;1.35;;
46222;SDS011;31943;51.410;7.564;2022-08-01T11:31:25;1.40;;;1.20;;
46222;SDS011;31943;51.410;7.564;2022-08-01T11:33:52;1.25;;;1.00;;
46222;SDS011;31943;51.410;7.564;2022-08-01T11:36:18;1.42;;;1.10;;
46222;SDS011;31943;51.410;7.564;2022-08-01T11:38:45;1.75;;;1.20;;
46222;SDS011;31943;51.410;7.564;2022-08-01T11:41:14;3.28;;;1.00;;
46222;SDS011;31943;51.410;7.564;2022-08-01T11:43:54;1.52;;;1.00;;
46222;SDS011;31943;51.410;7.564;2022-08-01T11:49:23;4.73;;;0.90;;
46222;SDS011;31943;51.410;7.564;2022-08-01T11:51:56;0.70;;;0.70;;
46222;SDS011;31943;51.410;7.564;2022-08-01T11:54:24;1.15;;;1.05;;
46222;SDS011;31943;51.410;7.564;2022-08-01T11:56:55;3.08;;;0.80;;
46222;SDS011;31943;51.410;7.564;2022-08-01T11:59:21;1.03;;;0.90;;
46222;SDS011;31943;51.410;7.564;2022-08-01T12:01:47;1.48;;;1.10;;
46222;SDS011;31943;51.410;7.564;2022-08-01T12:04:12;1.75;;;0.93;;
46222;SDS011;31943;51.410;7.564;2022-08-01T12:06:38;1.90;;;1.15;;
46222;SDS011;31943;51.410;7.564;2022-08-01T12:09:16;3.00;;;1.05;;
46222;SDS011;31943;51.410;7.564;2022-08-01T12:11:43;1.95;;;0.90;;
46222;SDS011;31943;51.410;7.564;2022-08-01T12:14:15;1.42;;;1.00;;
46222;SDS011;31943;51.410;7.564;2022-08-01T12:16:49;1.10;;;1.00;;
46222;SDS011;31943;51.410;7.564;2022-08-01T12:21:45;1.48;;;0.95;;
46222;SDS011;31943;51.410;7.564;2022-08-01T12:24:30;1.23;;;0.88;;
46222;SDS011;31943;51.410;7.564;2022-08-01T12:26:56;1.15;;;0.90;;
46222;SDS011;31943;51.410;7.564;2022-08-01T12:29:32;1.02;;;0.40;;
46222;SDS011;31943;51.410;7.564;2022-08-01T12:32:02;0.93;;;0.50;;
46222;SDS011;31943;51.410;7.564;2022-08-01T12:34:29;1.30;;;0.50;;
46222;SDS011;31943;51.410;7.564;2022-08-01T12:36:55;0.45;;;0.45;;
46222;SDS011;31943;51.410;7.564;2022-08-01T12:39:22;1.17;;;0.50;;
46222;SDS011;31943;51.410;7.564;2022-08-01T12:41:55;1.05;;;0.65;;
46222;SDS011;31943;51.410;7.564;2022-08-01T12:44:20;0.60;;;0.40;;
46222;SDS011;31943;51.410;7.564;2022-08-01T12:46:48;0.60;;;0.50;;
46222;SDS011;31943;51.410;7.564;2022-08-01T12:49:14;0.60;;;0.60;;
46222;SDS011;31943;51.410;7.564;2022-08-01T12:51:41;2.40;;;0.70;;
46222;SDS011;31943;51.410;7.564;2022-08-01T12:54:06;0.90;;;0.70;;
46222;SDS011;31943;51.410;7.564;2022-08-01T12:56:32;0.60;;;0.50;;
46222;SDS011;31943;51.410;7.564;2022-08-01T12:58:58;0.80;;;0.60;;
46222;SDS011;31943;51.410;7.564;2022-08-01T13:01:25;0.60;;;0.60;;
46222;SDS011;31943;51.410;7.564;2022-08-01T13:04:00;0.85;;;0.65;;
46222;SDS011;31943;51.410;7.564;2022-08-01T13:06:27;1.00;;;0.63;;
46222;SDS011;31943;51.410;7.564;2022-08-01T13:08:54;0.95;;;0.50;;
46222;SDS011;31943;51.410;7.564;2022-08-01T13:11:20;0.63;;;0.52;;
46222;SDS011;31943;51.410;7.564;2022-08-01T13:13:47;0.60;;;0.50;;
46222;SDS011;31943;51.410;7.564;2022-08-01T13:16:14;1.08;;;0.75;;
46222;SDS011;31943;51.410;7.564;2022-08-01T13:18:41;0.90;;;0.70;;
46222;SDS011;31943;51.410;7.564;2022-08-01T13:21:15;0.50;;;0.50;;
46222;SDS011;31943;51.410;7.564;2022-08-01T13:23:59;0.80;;;0.65;;
46222;SDS011;31943;51.410;7.564;2022-08-01T13:29:06;1.75;;;0.45;;
46222;SDS011;31943;51.410;7.564;2022-08-01T13:31:33;1.15;;;0.65;;
46222;SDS011;31943;51.410;7.564;2022-08-01T13:33:59;0.60;;;0.60;;
46222;SDS011;31943;51.410;7.564;2022-08-01T13:36:27;1.35;;;0.60;;
46222;SDS011;31943;51.410;7.564;2022-08-01T13:38:53;0.68;;;0.60;;
46222;SDS011;31943;51.410;7.564;2022-08-01T13:41:22;1.10;;;0.70;;
46222;SDS011;31943;51.410;7.564;2022-08-01T13:43:48;2.08;;;0.90;;
46222;SDS011;31943;51.410;7.564;2022-08-01T13:46:15;0.70;;;0.70;;
46222;SDS011;31943;51.410;7.564;2022-08-01T13:48:40;0.95;;;0.70;;
46222;SDS011;31943;51.410;7.564;2022-08-01T13:51:06;0.55;;;0.47;;
46222;SDS011;31943;51.410;7.564;2022-08-01T13:53:34;1.98;;;0.70;;
46222;SDS011;31943;51.410;7.564;2022-08-01T13:55:59;0.85;;;0.60;;
46222;SDS011;31943;51.410;7.564;2022-08-01T13:58:25;0.60;;;0.60;;
46222;SDS011;31943;51.410;7.564;2022-08-01T14:00:50;1.85;;;0.60;;
46222;SDS011;31943;51.410;7.564;2022-08-01T14:03:16;0.73;;;0.50;;
46222;SDS011;31943;51.410;7.564;2022-08-01T14:05:42;1.50;;;0.68;;
46222;SDS011;31943;51.410;7.564;2022-08-01T14:08:08;0.70;;;0.57;;
46222;SDS011;31943;51.410;7.564;2022-08-01T14:10:36;2.53;;;0.70;;
46222;SDS011;31943;51.410;7.564;2022-08-01T14:13:01;0.55;;;0.50;;
46222;SDS011;31943;51.410;7.564;2022-08-01T14:15:27;2.20;;;0.85;;
46222;SDS011;31943;51.410;7.564;2022-08-01T14:17:52;0.80;;;0.60;;
46222;SDS011;31943;51.410;7.564;2022-08-01T14:20:18;0.85;;;0.60;;
46222;SDS011;31943;51.410;7.564;2022-08-01T14:22:44;0.77;;;0.57;;
46222;SDS011;31943;51.410;7.564;2022-08-01T14:25:09;1.10;;;0.40;;
46222;SDS011;31943;51.410;7.564;2022-08-01T14:27:37;0.77;;;0.60;;
46222;SDS011;31943;51.410;7.564;2022-08-01T14:30:03;0.75;;;0.70;;
46222;SDS011;31943;51.410;7.564;2022-08-01T14:32:29;1.00;;;0.50;;
46222;SDS011;31943;51.410;7.564;2022-08-01T14:34:55;0.90;;;0.65;;
46222;SDS011;31943;51.410;7.564;2022-08-01T14:37:20;2.40;;;0.70;;
46222;SDS011;31943;51.410;7.564;2022-08-01T14:39:46;1.48;;;0.77;;
46222;SDS011;31943;51.410;7.564;2022-08-01T14:42:12;0.60;;;0.60;;
46222;SDS011;31943;51.410;7.564;2022-08-01T14:44:39;2.75;;;0.75;;
46222;SDS011;31943;51.410;7.564;2022-08-01T14:47:05;2.35;;;0.85;;
46222;SDS011;31943;51.410;7.564;2022-08-01T14:49:30;2.05;;;0.95;;
46222;SDS011;31943;51.410;7.564;2022-08-01T14:51:56;1.25;;;0.90;;
46222;SDS011;31943;51.410;7.564;2022-08-01T14:54:22;1.85;;;0.73;;